createdAt,value
2022-10-16T00:01:48.427Z,1.25
2022-10-16T00:04:16.695Z,1.30
2022-10-16T00:07:09.858Z,1.42
2022-10-16T00:09:38.199Z,1.50
2022-10-16T00:12:07.682Z,1.55
2022-10-16T00:14:35.941Z,1.40
2022-10-16T00:17:05.574Z,1.30
2022-10-16T00:19:33.802Z,1.50
2022-10-16T00:22:02.069Z,1.50
2022-10-16T00:24:31.022Z,1.40
2022-10-16T00:26:59.274Z,1.75
2022-10-16T00:29:27.638Z,1.70
2022-10-16T00:31:56.080Z,1.45
2022-10-16T00:34:26.524Z,1.73
2022-10-16T00:36:55.112Z,1.60
2022-10-16T00:39:23.471Z,1.70
2022-10-16T00:41:51.803Z,1.60
2022-10-16T00:44:53.360Z,1.83
2022-10-16T00:47:27.303Z,1.70
2022-10-16T00:50:06.462Z,1.63
2022-10-16T00:52:34.983Z,1.60
2022-10-16T00:55:05.393Z,1.70
2022-10-16T00:57:33.672Z,1.63
2022-10-16T01:00:02.651Z,2.13
2022-10-16T01:02:30.926Z,1.52
2022-10-16T01:05:00.967Z,1.48
2022-10-16T01:07:45.732Z,1.65
2022-10-16T01:10:29.228Z,1.70
2022-10-16T01:13:03.754Z,1.63
2022-10-16T01:18:17.954Z,1.38
2022-10-16T01:20:53.602Z,1.50
2022-10-16T01:23:37.300Z,1.67
2022-10-16T01:26:29.650Z,1.67
2022-10-16T01:29:06.034Z,1.58
2022-10-16T01:31:39.321Z,1.75
2022-10-16T01:34:14.472Z,1.50
2022-10-16T01:36:53.094Z,1.60
2022-10-16T01:39:51.251Z,1.33
2022-10-16T01:42:23.037Z,1.55
2022-10-16T01:44:55.250Z,1.63
2022-10-16T01:47:27.947Z,1.65
2022-10-16T01:49:58.202Z,1.40
2022-10-16T01:52:30.082Z,1.52
2022-10-16T01:55:00.388Z,1.80
2022-10-16T01:57:30.267Z,3.05
2022-10-16T02:00:06.601Z,1.90
2022-10-16T02:02:43.193Z,1.40
2022-10-16T02:05:41.847Z,1.40
2022-10-16T02:08:10.369Z,1.70
2022-10-16T02:10:40.254Z,1.20
2022-10-16T02:13:12.629Z,1.15
2022-10-16T02:15:42.458Z,1.30
2022-10-16T02:18:12.403Z,1.02
2022-10-16T02:20:52.582Z,1.40
2022-10-16T02:23:32.359Z,1.35
2022-10-16T02:26:03.154Z,1.45
2022-10-16T02:28:38.670Z,1.30
2022-10-16T02:31:13.972Z,1.55
2022-10-16T02:33:44.981Z,1.60
2022-10-16T02:36:13.927Z,1.10
2022-10-16T02:38:42.923Z,1.35
2022-10-16T02:41:12.093Z,1.40
2022-10-16T02:43:41.059Z,1.40
2022-10-16T02:46:10.784Z,1.58
2022-10-16T02:48:40.251Z,1.60
2022-10-16T02:51:08.810Z,1.23
2022-10-16T02:53:37.015Z,1.20
2022-10-16T02:56:12.689Z,1.33
2022-10-16T02:58:41.002Z,1.20
2022-10-16T03:01:10.676Z,1.30
2022-10-16T03:03:38.961Z,1.30
2022-10-16T03:06:07.588Z,1.30
2022-10-16T03:08:35.872Z,1.38
2022-10-16T03:11:04.057Z,1.30
2022-10-16T03:13:32.301Z,1.40
2022-10-16T03:16:00.510Z,1.23
2022-10-16T03:18:30.243Z,1.02
2022-10-16T03:20:58.495Z,1.23
2022-10-16T03:23:26.773Z,1.20
2022-10-16T03:25:55.079Z,1.10
2022-10-16T03:28:23.405Z,1.13
2022-10-16T03:30:51.640Z,1.20
2022-10-16T03:33:19.859Z,1.50
2022-10-16T03:35:55.439Z,1.20
2022-10-16T03:38:24.105Z,1.10
2022-10-16T03:40:54.224Z,1.23
2022-10-16T03:43:23.590Z,1.05
2022-10-16T03:45:53.318Z,1.20
2022-10-16T03:48:21.572Z,1.35
2022-10-16T03:50:49.768Z,1.08
2022-10-16T03:53:19.810Z,1.30
2022-10-16T03:55:48.072Z,1.27
2022-10-16T03:58:16.354Z,1.10
2022-10-16T04:00:45.372Z,1.17
2022-10-16T04:03:14.343Z,1.25
2022-10-16T04:05:42.777Z,1.20
2022-10-16T04:08:11.097Z,1.10
2022-10-16T04:10:41.113Z,1.00
2022-10-16T04:13:09.410Z,1.48
2022-10-16T04:15:37.667Z,1.20
2022-10-16T04:18:06.720Z,1.10
2022-10-16T04:20:35.588Z,1.20
2022-10-16T04:23:03.803Z,0.93
2022-10-16T04:25:32.866Z,1.20
2022-10-16T04:28:02.442Z,0.98
2022-10-16T04:30:30.697Z,1.23
2022-10-16T04:32:59.030Z,1.60
2022-10-16T04:35:27.338Z,1.30
2022-10-16T04:37:55.542Z,1.55
2022-10-16T04:40:23.765Z,1.10
2022-10-16T04:42:52.055Z,1.10
2022-10-16T04:45:21.625Z,1.10
2022-10-16T04:47:49.807Z,1.00
2022-10-16T04:50:18.258Z,1.20
2022-10-16T04:53:03.183Z,1.20
2022-10-16T04:55:31.495Z,1.13
2022-10-16T04:58:00.090Z,0.95
2022-10-16T05:00:29.938Z,0.90
2022-10-16T05:02:59.314Z,1.00
2022-10-16T05:05:27.707Z,1.15
2022-10-16T05:07:56.110Z,2.40
2022-10-16T05:13:42.526Z,1.10
2022-10-16T05:16:37.314Z,1.27
2022-10-16T05:19:30.631Z,1.50
2022-10-16T05:21:59.213Z,1.57
2022-10-16T05:24:28.290Z,1.53
2022-10-16T05:26:57.190Z,1.27
2022-10-16T05:29:25.684Z,0.97
2022-10-16T05:31:55.871Z,1.50
2022-10-16T05:34:24.165Z,1.27
2022-10-16T05:36:52.489Z,1.70
2022-10-16T05:39:22.446Z,1.90
2022-10-16T05:41:53.426Z,1.90
2022-10-16T05:44:21.720Z,1.80
2022-10-16T05:46:50.045Z,1.50
2022-10-16T05:49:19.678Z,1.73
2022-10-16T05:51:47.873Z,1.30
2022-10-16T05:54:16.530Z,1.23
2022-10-16T05:56:45.221Z,1.30
2022-10-16T05:59:13.616Z,1.13
2022-10-16T06:01:41.842Z,1.20
2022-10-16T06:06:47.406Z,1.20
2022-10-16T06:09:16.212Z,1.17
2022-10-16T06:11:44.503Z,1.53
2022-10-16T06:14:13.076Z,1.50
2022-10-16T06:16:41.329Z,1.33
2022-10-16T06:19:10.354Z,1.53
2022-10-16T06:21:38.753Z,1.67
2022-10-16T06:24:08.398Z,1.30
2022-10-16T06:26:36.588Z,1.10
2022-10-16T06:29:05.066Z,1.13
2022-10-16T06:31:34.510Z,1.25
2022-10-16T06:34:05.667Z,1.53
2022-10-16T06:36:33.982Z,1.50
2022-10-16T06:39:02.274Z,1.52
2022-10-16T06:41:31.930Z,1.10
2022-10-16T06:44:08.151Z,1.90
2022-10-16T06:46:36.613Z,3.53
2022-10-16T06:49:05.449Z,3.03
2022-10-16T06:51:37.918Z,2.47
2022-10-16T06:54:08.860Z,1.95
2022-10-16T06:56:38.626Z,1.63
2022-10-16T06:59:06.891Z,1.30
2022-10-16T07:01:35.402Z,1.65
2022-10-16T07:04:04.145Z,1.50
2022-10-16T07:06:35.322Z,1.83
2022-10-16T07:09:06.998Z,1.77
2022-10-16T07:11:35.735Z,1.75
2022-10-16T07:14:06.407Z,1.77
2022-10-16T07:16:35.241Z,1.40
2022-10-16T07:19:04.999Z,1.42
2022-10-16T07:21:37.011Z,1.50
2022-10-16T07:24:08.065Z,1.60
2022-10-16T07:26:40.016Z,1.70
2022-10-16T07:29:18.933Z,1.92
2022-10-16T07:31:47.608Z,1.30
2022-10-16T07:34:19.254Z,1.55
2022-10-16T07:36:50.570Z,1.73
2022-10-16T07:39:19.235Z,1.75
2022-10-16T07:41:47.538Z,1.77
2022-10-16T07:44:18.548Z,1.60
2022-10-16T07:46:48.011Z,1.60
2022-10-16T07:49:16.311Z,1.50
2022-10-16T07:51:44.530Z,1.77
2022-10-16T07:54:13.103Z,1.52
2022-10-16T07:56:43.806Z,1.67
2022-10-16T07:59:12.879Z,1.95
2022-10-16T08:01:43.143Z,1.58
2022-10-16T08:04:12.493Z,1.85
2022-10-16T08:06:42.573Z,1.95
2022-10-16T08:09:11.759Z,1.60
2022-10-16T08:11:39.925Z,1.50
2022-10-16T08:14:08.116Z,1.42
2022-10-16T08:16:36.290Z,1.40
2022-10-16T08:19:05.867Z,1.52
2022-10-16T08:21:33.982Z,1.33
2022-10-16T08:24:02.272Z,1.10
2022-10-16T08:26:30.557Z,1.30
2022-10-16T08:28:58.755Z,1.30
2022-10-16T08:31:28.058Z,1.70
2022-10-16T08:33:56.247Z,1.42
2022-10-16T08:36:25.796Z,1.60
2022-10-16T08:38:55.558Z,1.50
2022-10-16T08:42:03.820Z,1.42
2022-10-16T08:45:10.628Z,1.70
2022-10-16T08:47:51.205Z,1.58
2022-10-16T08:50:28.042Z,1.40
2022-10-16T08:52:59.277Z,1.60
2022-10-16T08:55:43.666Z,1.25
2022-10-16T08:58:16.068Z,1.65
2022-10-16T09:00:48.956Z,1.30
2022-10-16T09:03:38.690Z,1.50
2022-10-16T09:06:40.126Z,1.70
2022-10-16T09:09:34.953Z,1.55
2022-10-16T09:12:11.415Z,1.30
2022-10-16T09:15:03.577Z,1.30
2022-10-16T09:17:47.699Z,1.45
2022-10-16T09:20:32.671Z,1.50
2022-10-16T09:23:16.766Z,1.67
2022-10-16T09:25:50.324Z,1.58
2022-10-16T09:28:20.591Z,1.52
2022-10-16T09:30:50.888Z,1.40
2022-10-16T09:33:23.520Z,1.63
2022-10-16T09:35:54.772Z,1.40
2022-10-16T09:38:29.131Z,1.60
2022-10-16T09:41:03.676Z,1.40
2022-10-16T09:43:39.100Z,1.30
2022-10-16T09:46:09.625Z,1.30
2022-10-16T09:48:40.334Z,1.40
2022-10-16T09:51:20.149Z,1.38
2022-10-16T09:53:50.100Z,1.60
2022-10-16T09:56:27.583Z,2.65
2022-10-16T09:58:57.878Z,1.52
2022-10-16T10:01:32.897Z,1.35
2022-10-16T10:04:06.561Z,2.33
2022-10-16T10:06:38.996Z,1.30
2022-10-16T10:09:18.661Z,1.50
2022-10-16T10:11:53.138Z,1.48
2022-10-16T10:14:34.408Z,1.35
2022-10-16T10:17:16.660Z,1.67
2022-10-16T10:19:50.995Z,1.50
2022-10-16T10:22:33.001Z,1.30
2022-10-16T10:25:22.018Z,1.35
2022-10-16T10:28:11.597Z,1.40
2022-10-16T10:30:52.389Z,1.40
2022-10-16T10:33:30.431Z,1.50
2022-10-16T10:36:13.089Z,1.63
2022-10-16T10:38:49.845Z,1.30
2022-10-16T10:42:10.447Z,1.55
2022-10-16T10:45:14.211Z,1.30
2022-10-16T10:48:11.178Z,1.40
2022-10-16T10:50:45.527Z,1.38
2022-10-16T10:53:27.285Z,1.10
2022-10-16T10:56:10.185Z,1.75
2022-10-16T10:59:09.128Z,1.33
2022-10-16T11:01:49.883Z,1.77
2022-10-16T11:04:44.869Z,1.48
2022-10-16T11:07:19.644Z,1.30
2022-10-16T11:09:52.993Z,1.58
2022-10-16T11:12:24.516Z,1.20
2022-10-16T11:15:03.057Z,1.23
2022-10-16T11:17:40.602Z,1.20
2022-10-16T11:20:18.605Z,1.10
2022-10-16T11:22:52.128Z,1.25
2022-10-16T11:25:24.697Z,1.27
2022-10-16T11:27:57.452Z,1.25
2022-10-16T11:30:28.459Z,1.10
2022-10-16T11:33:21.442Z,1.10
2022-10-16T11:35:55.600Z,1.45
2022-10-16T11:38:31.855Z,1.20
2022-10-16T11:41:04.799Z,1.15
2022-10-16T11:43:40.398Z,1.10
2022-10-16T11:46:15.439Z,1.17
2022-10-16T11:48:52.691Z,1.20
2022-10-16T11:51:33.529Z,1.50
2022-10-16T11:54:09.406Z,1.40
2022-10-16T11:56:41.356Z,1.35
2022-10-16T11:59:21.406Z,1.30
2022-10-16T12:01:54.439Z,1.20
2022-10-16T12:04:34.950Z,1.48
2022-10-16T12:07:08.239Z,1.40
2022-10-16T12:09:41.262Z,1.40
2022-10-16T12:12:31.480Z,1.02
2022-10-16T12:15:16.306Z,1.40
2022-10-16T12:17:48.382Z,1.05
2022-10-16T12:20:31.293Z,1.20
2022-10-16T12:23:03.381Z,1.60
2022-10-16T12:25:34.846Z,1.27
2022-10-16T12:28:06.273Z,1.23
2022-10-16T12:30:36.751Z,1.30
2022-10-16T12:33:08.274Z,1.27
2022-10-16T12:35:46.538Z,1.10
2022-10-16T12:38:21.354Z,2.10
2022-10-16T12:40:58.855Z,1.20
2022-10-16T12:43:38.918Z,1.40
2022-10-16T12:46:25.865Z,1.10
2022-10-16T12:49:09.224Z,1.20
2022-10-16T12:51:39.560Z,1.58
2022-10-16T12:54:16.658Z,1.10
2022-10-16T12:57:04.191Z,1.20
2022-10-16T12:59:45.969Z,1.35
2022-10-16T13:02:48.839Z,1.30
2022-10-16T13:08:33.000Z,1.02
2022-10-16T13:11:09.772Z,0.90
2022-10-16T13:14:09.510Z,1.00
2022-10-16T13:16:52.654Z,1.30
2022-10-16T13:19:31.698Z,1.23
2022-10-16T13:22:07.902Z,1.30
2022-10-16T13:24:58.302Z,1.27
2022-10-16T13:27:39.031Z,1.10
2022-10-16T13:30:17.597Z,1.10
2022-10-16T13:32:49.399Z,0.80
2022-10-16T13:35:23.258Z,0.85
2022-10-16T13:37:52.179Z,1.10
2022-10-16T13:40:24.574Z,0.90
2022-10-16T13:42:53.404Z,0.90
2022-10-16T13:45:26.199Z,0.73
2022-10-16T13:48:05.387Z,0.90
2022-10-16T13:50:33.935Z,1.10
2022-10-16T13:53:09.320Z,1.00
2022-10-16T13:55:38.896Z,0.88
2022-10-16T13:58:09.504Z,0.95
2022-10-16T14:03:17.300Z,1.20
2022-10-16T14:05:56.822Z,1.10
2022-10-16T14:08:27.825Z,0.80
2022-10-16T14:11:00.221Z,1.00
2022-10-16T14:13:34.535Z,1.00
2022-10-16T14:16:09.472Z,0.90
2022-10-16T14:18:39.881Z,1.15
2022-10-16T14:21:13.985Z,1.45
2022-10-16T14:23:44.247Z,1.27
2022-10-16T14:26:19.922Z,1.52
2022-10-16T14:28:49.989Z,1.02
2022-10-16T14:31:40.663Z,1.05
2022-10-16T14:34:28.562Z,0.90
2022-10-16T14:36:57.633Z,1.00
2022-10-16T14:39:28.663Z,1.10
2022-10-16T14:42:00.412Z,0.95
2022-10-16T14:44:33.876Z,1.15
2022-10-16T14:47:11.831Z,1.30
2022-10-16T14:49:40.077Z,1.30
2022-10-16T14:52:13.546Z,1.00
2022-10-16T14:54:42.147Z,1.00
2022-10-16T14:57:21.094Z,1.02
2022-10-16T14:59:52.090Z,1.05
2022-10-16T15:02:29.431Z,1.90
2022-10-16T15:04:58.579Z,1.92
2022-10-16T15:07:27.515Z,1.35
2022-10-16T15:09:58.021Z,1.23
2022-10-16T15:12:27.601Z,1.40
2022-10-16T15:14:55.892Z,1.48
2022-10-16T15:17:24.402Z,1.30
2022-10-16T15:19:52.843Z,1.25
2022-10-16T15:22:24.187Z,1.45
2022-10-16T15:24:52.395Z,1.50
2022-10-16T15:27:20.596Z,1.50
2022-10-16T15:29:50.179Z,1.48
2022-10-16T15:32:18.431Z,1.48
2022-10-16T15:34:46.711Z,1.80
2022-10-16T15:37:14.987Z,2.03
2022-10-16T15:39:43.245Z,1.92
2022-10-16T15:42:12.058Z,1.88
2022-10-16T15:44:40.283Z,2.53
2022-10-16T15:47:11.082Z,1.70
2022-10-16T15:49:39.316Z,2.10
2022-10-16T15:52:07.576Z,1.30
2022-10-16T15:54:35.886Z,2.22
2022-10-16T15:57:04.151Z,2.30
2022-10-16T15:59:32.554Z,2.22
2022-10-16T16:02:00.834Z,2.00
2022-10-16T16:07:24.906Z,1.98
2022-10-16T16:09:53.226Z,1.42
2022-10-16T16:12:21.817Z,1.55
2022-10-16T16:14:50.176Z,1.52
2022-10-16T16:17:18.639Z,1.50
2022-10-16T16:19:48.609Z,1.40
2022-10-16T16:22:16.823Z,1.65
2022-10-16T16:24:45.027Z,1.58
2022-10-16T16:27:14.491Z,1.65
2022-10-16T16:29:42.714Z,1.60
2022-10-16T16:32:11.147Z,1.70
2022-10-16T16:34:39.413Z,2.30
2022-10-16T16:37:09.017Z,1.95
2022-10-16T16:39:37.219Z,1.80
2022-10-16T16:42:07.225Z,2.05
2022-10-16T16:44:37.104Z,1.83
2022-10-16T16:47:05.618Z,1.90
2022-10-16T16:49:34.374Z,2.00
2022-10-16T16:52:02.809Z,2.15
2022-10-16T16:54:37.322Z,1.90
2022-10-16T16:57:05.735Z,2.53
2022-10-16T16:59:34.626Z,2.40
2022-10-16T17:02:03.255Z,2.28
2022-10-16T17:04:31.535Z,2.72
2022-10-16T17:06:59.838Z,2.38
2022-10-16T17:09:28.182Z,2.75
2022-10-16T17:11:57.786Z,1.95
2022-10-16T17:14:26.128Z,3.10
2022-10-16T17:16:54.813Z,2.30
2022-10-16T17:19:23.491Z,2.05
2022-10-16T17:21:53.066Z,2.00
2022-10-16T17:24:21.840Z,2.50
2022-10-16T17:26:50.782Z,2.40
2022-10-16T17:29:20.877Z,5.00
2022-10-16T17:31:50.816Z,7.45
2022-10-16T17:34:19.593Z,6.28
2022-10-16T17:36:48.096Z,3.38
2022-10-16T17:39:19.072Z,2.20
2022-10-16T17:41:48.844Z,1.80
2022-10-16T17:44:20.791Z,1.90
2022-10-16T17:46:53.407Z,2.35
2022-10-16T17:49:22.854Z,2.10
2022-10-16T17:51:52.747Z,4.35
2022-10-16T17:54:25.677Z,8.25
2022-10-16T17:56:54.024Z,7.45
2022-10-16T17:59:23.105Z,7.30
2022-10-16T18:01:52.946Z,2.88
2022-10-16T18:04:29.154Z,2.35
2022-10-16T18:06:57.330Z,1.85
2022-10-16T18:09:25.506Z,39.10
2022-10-16T18:11:59.929Z,28.65
2022-10-16T18:14:29.969Z,23.88
2022-10-16T18:17:00.254Z,14.95
2022-10-16T18:19:28.999Z,10.60
2022-10-16T18:21:57.450Z,5.57
2022-10-16T18:24:27.022Z,19.75
2022-10-16T18:26:57.439Z,13.70
2022-10-16T18:29:28.137Z,8.63
2022-10-16T18:31:57.128Z,12.57
2022-10-16T18:34:27.936Z,9.93
2022-10-16T18:36:57.506Z,9.20
2022-10-16T18:39:25.761Z,4.65
2022-10-16T18:41:59.509Z,5.40
2022-10-16T18:44:28.342Z,5.55
2022-10-16T18:46:59.097Z,5.55
2022-10-16T18:49:29.648Z,4.35
2022-10-16T18:51:58.605Z,2.95
2022-10-16T18:54:26.925Z,2.75
2022-10-16T18:56:55.381Z,2.30
2022-10-16T18:59:23.893Z,2.50
2022-10-16T19:01:52.540Z,1.95
2022-10-16T19:04:22.447Z,2.33
2022-10-16T19:06:54.450Z,2.03
2022-10-16T19:09:25.599Z,1.65
2022-10-16T19:11:53.909Z,1.77
2022-10-16T19:14:22.175Z,1.73
2022-10-16T19:16:50.430Z,1.80
2022-10-16T19:19:19.888Z,1.50
2022-10-16T19:21:51.182Z,2.08
2022-10-16T19:24:21.297Z,1.70
2022-10-16T19:26:49.583Z,2.05
2022-10-16T19:29:17.867Z,1.70
2022-10-16T19:31:46.336Z,1.95
2022-10-16T19:34:14.664Z,1.85
2022-10-16T19:36:43.402Z,1.85
2022-10-16T19:39:15.882Z,1.80
2022-10-16T19:41:49.275Z,1.83
2022-10-16T19:44:18.567Z,2.20
2022-10-16T19:46:48.869Z,1.90
2022-10-16T19:49:21.690Z,2.10
2022-10-16T19:51:51.807Z,1.88
2022-10-16T19:54:20.251Z,1.92
2022-10-16T19:56:50.670Z,1.80
2022-10-16T19:59:20.241Z,1.85
2022-10-16T20:01:49.102Z,1.55
2022-10-16T20:04:23.297Z,1.80
2022-10-16T20:06:51.689Z,2.00
2022-10-16T20:09:19.975Z,1.98
2022-10-16T20:11:48.234Z,5.13
2022-10-16T20:14:18.508Z,2.58
2022-10-16T20:16:46.752Z,2.08
2022-10-16T20:19:15.989Z,2.10
2022-10-16T20:21:44.258Z,1.88
2022-10-16T20:24:12.517Z,2.15
2022-10-16T20:26:42.832Z,1.75
2022-10-16T20:29:11.540Z,1.75
2022-10-16T20:31:42.194Z,1.95
2022-10-16T20:34:13.342Z,1.88
2022-10-16T20:36:45.259Z,1.77
2022-10-16T20:39:14.735Z,2.00
2022-10-16T20:41:42.982Z,2.60
2022-10-16T20:44:11.239Z,1.80
2022-10-16T20:46:41.652Z,1.77
2022-10-16T20:49:27.637Z,1.63
2022-10-16T20:51:56.942Z,1.83
2022-10-16T20:54:25.162Z,1.60
2022-10-16T20:56:56.180Z,1.75
2022-10-16T20:59:24.892Z,1.85
2022-10-16T21:01:54.539Z,1.83
2022-10-16T21:04:22.858Z,1.70
2022-10-16T21:06:51.062Z,1.65
2022-10-16T21:09:19.289Z,1.80
2022-10-16T21:11:47.498Z,1.85
2022-10-16T21:14:15.669Z,1.60
2022-10-16T21:16:43.985Z,2.00
2022-10-16T21:19:19.106Z,1.95
2022-10-16T21:21:47.310Z,1.75
2022-10-16T21:24:17.857Z,1.88
2022-10-16T21:26:46.296Z,1.50
2022-10-16T21:29:14.849Z,1.60
2022-10-16T21:31:44.421Z,1.67
2022-10-16T21:34:12.763Z,1.48
2022-10-16T21:36:44.039Z,2.00
2022-10-16T21:39:14.976Z,1.77
2022-10-16T21:41:49.400Z,1.98
2022-10-16T21:44:20.087Z,1.65
2022-10-16T21:46:48.821Z,1.65
2022-10-16T21:49:19.427Z,1.42
2022-10-16T21:51:50.956Z,1.60
2022-10-16T21:54:21.532Z,1.60
2022-10-16T21:56:50.424Z,1.73
2022-10-16T21:59:18.766Z,1.98
2022-10-16T22:01:47.120Z,1.60
2022-10-16T22:04:17.499Z,1.58
2022-10-16T22:06:46.212Z,1.67
2022-10-16T22:09:17.896Z,1.75
2022-10-16T22:11:46.699Z,1.80
2022-10-16T22:14:18.504Z,1.67
2022-10-16T22:16:47.457Z,1.70
2022-10-16T22:19:18.814Z,1.60
2022-10-16T22:21:48.639Z,1.75
2022-10-16T22:24:19.066Z,1.65
2022-10-16T22:26:48.246Z,1.60
2022-10-16T22:29:17.631Z,1.60
2022-10-16T22:31:46.125Z,1.77
2022-10-16T22:34:15.627Z,1.60
2022-10-16T22:36:43.861Z,1.77
2022-10-16T22:39:12.462Z,1.70
2022-10-16T22:41:42.437Z,1.63
2022-10-16T22:44:13.795Z,1.52
2022-10-16T22:46:42.200Z,1.60
2022-10-16T22:49:10.565Z,1.70
2022-10-16T22:51:38.875Z,1.90
2022-10-16T22:54:07.114Z,1.70
2022-10-16T22:56:36.743Z,1.70
2022-10-16T22:59:06.854Z,1.63
2022-10-16T23:01:38.057Z,1.60
2022-10-16T23:04:06.565Z,1.70
2022-10-16T23:06:35.468Z,1.63
2022-10-16T23:09:04.428Z,1.47
2022-10-16T23:11:32.978Z,1.60
2022-10-16T23:14:01.309Z,1.87
2022-10-16T23:16:30.913Z,1.77
2022-10-16T23:18:59.992Z,1.50
2022-10-16T23:21:28.397Z,1.53
2022-10-16T23:23:56.948Z,1.63
2022-10-16T23:26:27.584Z,1.60
2022-10-16T23:28:58.500Z,1.60
2022-10-16T23:31:27.499Z,2.00
2022-10-16T23:33:57.990Z,1.83
2022-10-16T23:36:26.810Z,1.40
2022-10-16T23:38:55.833Z,1.57
2022-10-16T23:41:24.185Z,1.50
2022-10-16T23:43:52.958Z,1.47
2022-10-16T23:46:21.231Z,1.70
2022-10-16T23:48:49.449Z,1.90
2022-10-16T23:51:19.055Z,1.77
2022-10-16T23:53:47.372Z,1.60
2022-10-16T23:56:15.878Z,1.63
2022-10-16T23:58:44.243Z,1.50
